Hendersonville, NC (28739)

11:48 PM EDT on August 30, 2015 (GMT -0400)
big wllow | | Change Station
CLOSE
Current Station
Personal Weather Station
Location: Hendersonville, NC
Elevation: 2343 ft
Nearby Weather Stations

Elev 2343 ft 35.28 °N, 82.53 °W | Updated 23 seconds ago

Rain
Rain
62.1 °F
Feels Like 62.1 °F
N
0.0
Wind Variable Wind from NNE
Gusts 0.0 mph

Today
High -- | Low -- °F
--% Chance of Precip.
Yesterday
High -- | Low -- °F
Precip. -- in
7:00 AM 8:00 PM
Full, 97% visible
Pressure 30.22 in
Visibility 7.0 miles
Clouds Few 400 ft
Mostly Cloudy 4300 ft
Overcast 11000 ft
Dew Point 61 °F
Humidity 98%
Rainfall 0.04 in
Snow Depth Not available.
UV 0 out of 12
Pollen 5.20 out of 12
Air Quality Not available.
Flu Activity Not available.
SPECI KAVL 310330Z 20003KT 7SM -RA FEW004 BKN043 OVC110 18/17 A3022 RMK AO2 RAB08 P0001 T01780167
Pressure 30.22 in
Visibility 7.0 miles
Clouds Few 400 ft
Mostly Cloudy 4300 ft
Overcast 11000 ft
Dew Point 61 °F
Humidity 98%
Rainfall 0.04 in
Snow Depth Not available.
UV 0 out of 12
Pollen 5.20 out of 12
Air Quality Not available.
Flu Activity Not available.
SPECI KAVL 310330Z 20003KT 7SM -RA FEW004 BKN043 OVC110 18/17 A3022 RMK AO2 RAB08 P0001 T01780167

10-Day Weather Forecast

×

Almanac

Astronomy

Aug. 30, 2015 Rise Set
Actual Time
Civil Twilight
Nautical Twilight
Astronomical Twilight
Moon
Length of Visible Light
Length of Day
Tomorrow will be .
, % of the Moon is Illuminated

Today's Extremes

State Highs State Lows

Community

WunderPhotos

Upload Photos

1,851,179 photos uploaded!

WunderBlogs® & News

Nearby

Air Quality

  Air Quality AQ Index Pollutant
Not available.

Snow Depth

Station Depth Elevation

Earthquake Activity

City Distance Mag. Time & Date
Minimum magnitude displayed is 2.5.

Coastal Water Temperatures

Place Temperature

Stations

Nearby Weather Stations

Station Location Temp. Windchill Dew Point Humidity Wind Precip. Elev Updated Type